Time;durP1;ratioP1;P1;durP2;ratioP2;P2;SDS_P1;SDS_P2;PMS_P1;PMS_P2;Temp;Humidity;BMP_temperature;BMP_pressure;BME280_temperature;BME280_humidity;BME280_pressure;Samples;Min_cycle;Max_cycle;Signal;HPM_P1;HPM_P2
2021/06/13 00:00:28;;;;;;;12.60;9.30;;;19.90;74.10;;;;;;5017989;28;20192;-37
2021/06/13 00:02:53;;;;;;;11.15;8.52;;;19.90;74.20;;;;;;5017962;28;20029;-38
2021/06/13 00:05:19;;;;;;;15.65;9.63;;;19.90;74.20;;;;;;5018011;28;20322;-36
2021/06/13 00:07:45;;;;;;;11.52;8.80;;;19.80;74.30;;;;;;5017925;28;20322;-36
2021/06/13 00:10:13;;;;;;;13.55;9.02;;;19.80;74.50;;;;;;5017634;28;20026;-39
2021/06/13 00:12:39;;;;;;;14.52;9.32;;;19.80;75.10;;;;;;5017488;28;20029;-39
2021/06/13 00:15:08;;;;;;;12.38;9.95;;;19.80;74.80;;;;;;5017743;28;20029;-36
2021/06/13 00:17:34;;;;;;;12.15;8.82;;;19.70;74.90;;;;;;5017549;28;20468;-36
2021/06/13 00:19:59;;;;;;;12.95;8.98;;;19.70;75.00;;;;;;5017599;28;20033;-39
2021/06/13 00:22:25;;;;;;;14.55;8.77;;;19.70;75.00;;;;;;5017816;28;20041;-36
2021/06/13 00:24:51;;;;;;;14.82;9.63;;;19.70;75.10;;;;;;5017504;28;20049;-39
2021/06/13 00:27:16;;;;;;;15.40;9.32;;;19.60;75.20;;;;;;5017119;28;20042;-37
2021/06/13 00:29:42;;;;;;;13.02;9.10;;;19.60;75.20;;;;;;5017627;28;20091;-36
2021/06/13 00:32:11;;;;;;;15.85;10.30;;;19.60;75.30;;;;;;5017513;28;20030;-36
2021/06/13 00:34:37;;;;;;;15.05;10.07;;;19.60;75.60;;;;;;5017791;28;20360;-36
2021/06/13 00:37:02;;;;;;;16.20;10.25;;;19.60;75.70;;;;;;5017446;28;20065;-36
2021/06/13 00:39:28;;;;;;;15.20;10.25;;;19.50;75.70;;;;;;5017632;28;20137;-37
2021/06/13 00:41:54;;;;;;;15.50;9.48;;;19.50;75.70;;;;;;5017319;28;20029;-36
2021/06/13 00:44:20;;;;;;;12.48;9.20;;;19.50;75.80;;;;;;5017480;28;20076;-39
2021/06/13 00:46:46;;;;;;;15.77;10.60;;;19.50;75.80;;;;;;5016711;28;20038;-39
2021/06/13 00:49:11;;;;;;;15.25;9.75;;;19.40;75.90;;;;;;5016981;28;20030;-39
2021/06/13 00:51:37;;;;;;;16.73;11.25;;;19.40;76.00;;;;;;5017226;28;20372;-36
2021/06/13 00:54:03;;;;;;;14.35;10.77;;;19.40;76.30;;;;;;5017153;28;20040;-36
2021/06/13 00:56:28;;;;;;;16.67;10.45;;;19.30;76.40;;;;;;5017222;28;20041;-39
2021/06/13 00:58:54;;;;;;;12.52;10.32;;;19.30;76.50;;;;;;5016999;28;20429;-39
2021/06/13 01:01:20;;;;;;;12.93;9.75;;;19.30;76.60;;;;;;5016803;28;20295;-39
2021/06/13 01:03:47;;;;;;;15.52;9.93;;;19.30;76.70;;;;;;5017162;28;20022;-39
2021/06/13 01:06:24;;;;;;;15.52;11.02;;;19.20;76.80;;;;;;5017253;28;20052;-36
2021/06/13 01:08:59;;;;;;;15.75;10.40;;;19.20;76.90;;;;;;5016850;28;20022;-38
2021/06/13 01:12:02;;;;;;;17.65;10.43;;;19.20;77.10;;;;;;5016571;28;20076;-37
2021/06/13 01:14:36;;;;;;;14.52;9.60;;;19.10;77.00;;;;;;5017029;28;20079;-36
2021/06/13 01:17:30;;;;;;;13.00;9.50;;;19.10;77.20;;;;;;5016179;28;20034;-38
2021/06/13 01:20:28;;;;;;;13.50;9.00;;;19.00;77.20;;;;;;5016852;28;20030;-36
2021/06/13 01:23:21;;;;;;;15.95;9.57;;;19.00;77.20;;;;;;5016068;28;20069;-39
2021/06/13 01:26:24;;;;;;;13.13;9.35;;;19.00;77.40;;;;;;5016472;28;20434;-39
2021/06/13 01:29:13;;;;;;;14.60;8.82;;;18.90;77.50;;;;;;5016550;28;20033;-39
2021/06/13 01:31:38;;;;;;;15.02;9.40;;;18.90;77.70;;;;;;5016516;28;20046;-39
2021/06/13 01:34:08;;;;;;;15.48;9.15;;;18.80;78.00;;;;;;5016587;28;20303;-36
2021/06/13 01:36:35;;;;;;;12.40;8.57;;;18.80;77.90;;;;;;5016048;28;20109;-38
2021/06/13 01:39:05;;;;;;;13.43;8.95;;;18.80;78.10;;;;;;5016390;28;20418;-37
2021/06/13 01:41:33;;;;;;;15.57;9.20;;;18.70;78.20;;;;;;5016299;28;20030;-37
2021/06/13 01:44:00;;;;;;;11.30;8.43;;;18.70;78.20;;;;;;5016268;28;20426;-39
2021/06/13 01:46:30;;;;;;;11.75;8.15;;;18.70;78.20;;;;;;5016202;28;20034;-38
2021/06/13 01:48:56;;;;;;;12.30;8.65;;;18.70;78.50;;;;;;5016151;28;20113;-37
2021/06/13 01:51:23;;;;;;;16.35;9.63;;;18.60;79.00;;;;;;5015987;28;20264;-37
2021/06/13 01:53:50;;;;;;;13.57;9.18;;;18.60;78.70;;;;;;5016229;28;20030;-38
2021/06/13 01:56:17;;;;;;;13.18;8.52;;;18.60;78.60;;;;;;5016376;28;20034;-38
2021/06/13 01:58:45;;;;;;;12.68;8.25;;;18.60;78.60;;;;;;5015787;28;20081;-37
2021/06/13 02:01:16;;;;;;;12.80;9.18;;;18.60;78.60;;;;;;5016283;28;20037;-39
2021/06/13 02:03:48;;;;;;;13.18;9.35;;;18.50;78.60;;;;;;5015951;28;20029;-37
2021/06/13 02:06:15;;;;;;;15.30;9.27;;;18.50;78.70;;;;;;5016011;28;20434;-37
2021/06/13 02:08:44;;;;;;;12.10;8.30;;;18.50;78.80;;;;;;5015684;28;20038;-37
2021/06/13 02:11:11;;;;;;;18.52;8.00;;;18.50;78.70;;;;;;5015862;28;20041;-39
2021/06/13 02:13:38;;;;;;;12.63;8.90;;;18.50;78.70;;;;;;5015580;28;20299;-39
2021/06/13 02:16:06;;;;;;;11.23;8.18;;;18.50;78.90;;;;;;5015979;28;20084;-37
2021/06/13 02:18:33;;;;;;;17.27;7.90;;;18.50;78.80;;;;;;5015503;28;20042;-37
2021/06/13 02:21:03;;;;;;;14.30;8.18;;;18.50;78.80;;;;;;5015824;28;20045;-36
2021/06/13 02:23:29;;;;;;;10.18;7.80;;;18.50;78.80;;;;;;5019611;28;20038;-37
2021/06/13 02:25:55;;;;;;;12.13;7.63;;;18.50;78.70;;;;;;5019909;28;20113;-39
2021/06/13 02:28:23;;;;;;;13.07;8.25;;;18.50;78.70;;;;;;5019396;28;20137;-37
2021/06/13 02:30:51;;;;;;;11.10;8.00;;;18.50;78.70;;;;;;5020088;28;20065;-40
2021/06/13 02:33:18;;;;;;;11.95;8.13;;;18.50;78.70;;;;;;5019280;28;20055;-37
2021/06/13 02:35:49;;;;;;;13.10;7.97;;;18.50;78.70;;;;;;5019857;28;20076;-39
2021/06/13 02:38:16;;;;;;;13.63;7.80;;;18.50;78.70;;;;;;5019305;28;20050;-37
2021/06/13 02:40:42;;;;;;;20.25;8.73;;;18.50;78.70;;;;;;5019807;28;20037;-39
2021/06/13 02:43:08;;;;;;;12.50;8.10;;;18.50;78.80;;;;;;5019172;28;20330;-39
2021/06/13 02:45:34;;;;;;;10.68;7.63;;;18.50;78.80;;;;;;5019473;28;20034;-39
2021/06/13 02:47:59;;;;;;;12.43;7.68;;;18.50;78.70;;;;;;5019152;28;20034;-38
2021/06/13 02:50:26;;;;;;;11.68;7.68;;;18.60;78.80;;;;;;5019508;28;20069;-37
2021/06/13 02:52:58;;;;;;;12.88;7.50;;;18.50;78.60;;;;;;5019459;28;20049;-36
2021/06/13 02:55:34;;;;;;;15.65;8.88;;;18.50;78.60;;;;;;5019247;28;20069;-37
2021/06/13 02:58:03;;;;;;;14.73;7.63;;;18.60;78.60;;;;;;5019102;28;20072;-38
2021/06/13 03:00:30;;;;;;;13.35;7.75;;;18.50;78.60;;;;;;5019242;28;20120;-39
2021/06/13 03:02:58;;;;;;;12.10;7.57;;;18.60;78.60;;;;;;5018858;28;20049;-39
2021/06/13 03:05:26;;;;;;;9.13;6.63;;;18.60;78.60;;;;;;5018850;28;20322;-39
2021/06/13 03:07:53;;;;;;;12.80;6.95;;;18.60;78.50;;;;;;5019243;28;20080;-37
2021/06/13 03:10:20;;;;;;;10.75;6.57;;;18.60;78.50;;;;;;5018888;28;20036;-37
2021/06/13 03:12:47;;;;;;;12.93;6.63;;;18.60;78.30;;;;;;5018761;28;20021;-37
2021/06/13 03:15:14;;;;;;;10.07;6.68;;;18.70;78.30;;;;;;5018828;28;20330;-39
2021/06/13 03:17:41;;;;;;;10.98;6.68;;;18.70;78.10;;;;;;5018487;28;20037;-36
2021/06/13 03:20:10;;;;;;;12.07;6.60;;;18.70;77.90;;;;;;5019042;28;20057;-39
2021/06/13 03:22:36;;;;;;;10.27;6.97;;;18.80;77.80;;;;;;5018792;28;20034;-36
2021/06/13 03:25:04;;;;;;;9.07;6.32;;;18.80;77.40;;;;;;5018651;28;20042;-36
2021/06/13 03:27:30;;;;;;;8.38;6.40;;;18.80;77.20;;;;;;5018896;28;20325;-39
2021/06/13 03:29:57;;;;;;;8.27;6.10;;;18.90;77.10;;;;;;5018725;28;20091;-38
2021/06/13 03:32:23;;;;;;;8.50;6.28;;;18.90;76.80;;;;;;5018596;28;20034;-37
2021/06/13 03:34:49;;;;;;;8.93;6.20;;;19.00;76.60;;;;;;5018622;28;20065;-36
2021/06/13 03:37:15;;;;;;;7.95;5.90;;;19.00;76.50;;;;;;5018536;28;20057;-39
2021/06/13 03:39:43;;;;;;;8.13;6.13;;;19.10;76.40;;;;;;5018575;28;20026;-37
2021/06/13 03:42:13;;;;;;;13.00;7.50;;;19.10;76.40;;;;;;5018544;28;20034;-38
2021/06/13 03:44:40;;;;;;;10.30;6.70;;;19.10;76.40;;;;;;5018624;28;20041;-37
2021/06/13 03:47:06;;;;;;;11.75;7.35;;;19.10;76.40;;;;;;5018443;28;20072;-36
2021/06/13 03:49:34;;;;;;;10.35;6.45;;;19.20;76.40;;;;;;5018467;28;20041;-39
2021/06/13 03:52:00;;;;;;;7.65;5.80;;;19.20;76.50;;;;;;5018202;28;20026;-37
2021/06/13 03:54:26;;;;;;;9.27;6.22;;;19.30;76.20;;;;;;5018265;28;20427;-38
2021/06/13 03:56:55;;;;;;;8.90;6.22;;;19.30;76.10;;;;;;5018289;28;20238;-38
2021/06/13 03:59:26;;;;;;;9.52;6.13;;;19.30;75.80;;;;;;5018416;28;20105;-39
2021/06/13 04:01:53;;;;;;;7.88;5.78;;;19.40;75.70;;;;;;5018103;28;20045;-36
2021/06/13 04:04:20;;;;;;;8.57;5.28;;;19.50;75.20;;;;;;5033027;28;20062;-37
2021/06/13 04:06:48;;;;;;;9.65;5.80;;;19.50;75.00;;;;;;5017853;28;20410;-39
2021/06/13 04:09:18;;;;;;;8.38;5.50;;;19.60;74.90;;;;;;5017764;28;20033;-38
2021/06/13 04:11:48;;;;;;;10.00;6.13;;;19.60;74.70;;;;;;5018132;28;20030;-38
2021/06/13 04:14:15;;;;;;;6.40;5.40;;;19.70;74.70;;;;;;5018033;28;20108;-39
2021/06/13 04:16:44;;;;;;;9.98;5.60;;;19.80;74.40;;;;;;5017803;28;20156;-37
2021/06/13 04:19:10;;;;;;;10.75;6.05;;;19.90;74.00;;;;;;5017326;28;20046;-39
2021/06/13 04:21:38;;;;;;;10.85;6.20;;;20.00;73.90;;;;;;5017474;28;20052;-39
2021/06/13 04:24:06;;;;;;;8.07;5.30;;;20.00;73.80;;;;;;5017918;28;20153;-37
2021/06/13 04:26:33;;;;;;;14.60;5.97;;;20.10;73.40;;;;;;5017592;28;20437;-39
2021/06/13 04:28:59;;;;;;;7.28;5.43;;;20.10;73.20;;;;;;5017617;28;20022;-38
2021/06/13 04:31:27;;;;;;;9.98;5.85;;;20.20;73.00;;;;;;5017330;28;20033;-36
2021/06/13 04:33:54;;;;;;;7.57;5.10;;;20.30;72.60;;;;;;5017334;28;20022;-36
2021/06/13 04:36:21;;;;;;;8.88;5.40;;;20.30;72.10;;;;;;5017426;28;20040;-38
2021/06/13 04:38:47;;;;;;;9.55;5.28;;;20.40;71.70;;;;;;5017706;28;20029;-38
2021/06/13 04:41:13;;;;;;;10.05;5.00;;;20.50;71.70;;;;;;5017101;28;20033;-36
2021/06/13 04:43:39;;;;;;;9.35;5.30;;;20.50;71.10;;;;;;5016700;28;20057;-39
2021/06/13 04:46:09;;;;;;;5.90;4.72;;;20.60;71.00;;;;;;5016733;28;20037;-36
2021/06/13 04:48:35;;;;;;;8.73;4.97;;;20.70;70.60;;;;;;5016762;28;20061;-39
2021/06/13 04:51:03;;;;;;;6.75;4.70;;;20.70;70.30;;;;;;5017161;28;20072;-37
2021/06/13 04:53:47;;;;;;;9.95;4.80;;;20.80;69.80;;;;;;5017010;28;20041;-36
2021/06/13 04:56:36;;;;;;;11.15;5.28;;;20.80;69.60;;;;;;5017129;28;20026;-39
2021/06/13 04:59:02;;;;;;;7.40;4.97;;;20.90;69.60;;;;;;5017386;28;20026;-37
2021/06/13 05:01:28;;;;;;;7.28;4.75;;;21.00;69.40;;;;;;5017031;28;20373;-39
2021/06/13 05:03:55;;;;;;;7.43;4.53;;;21.10;69.40;;;;;;5016654;28;20034;-37
2021/06/13 05:06:21;;;;;;;8.90;5.22;;;21.10;69.20;;;;;;5016780;28;20029;-37
2021/06/13 05:08:46;;;;;;;5.53;4.45;;;21.20;69.00;;;;;;5017060;28;20310;-40
2021/06/13 05:11:12;;;;;;;9.20;5.93;;;21.30;68.70;;;;;;5016508;28;20081;-39
2021/06/13 05:13:39;;;;;;;12.65;5.07;;;21.40;68.70;;;;;;5016655;28;20068;-38
2021/06/13 05:16:05;;;;;;;9.05;5.50;;;21.40;68.70;;;;;;5016956;28;20026;-39
2021/06/13 05:18:31;;;;;;;7.80;5.38;;;21.50;68.20;;;;;;5016232;28;20107;-39
2021/06/13 05:20:57;;;;;;;9.35;6.18;;;21.60;68.20;;;;;;5016563;28;20406;-39
2021/06/13 05:23:23;;;;;;;9.07;5.00;;;21.60;67.90;;;;;;5016494;28;20036;-37
2021/06/13 05:25:53;;;;;;;11.70;5.40;;;21.70;68.30;;;;;;5016282;28;20042;-40
2021/06/13 05:28:20;;;;;;;14.35;8.48;;;21.70;68.00;;;;;;5016402;28;20088;-37
2021/06/13 05:30:46;;;;;;;14.30;8.02;;;21.80;67.70;;;;;;5016219;28;20042;-39
2021/06/13 05:33:12;;;;;;;11.63;6.28;;;21.90;68.20;;;;;;5015805;28;20072;-36
2021/06/13 05:35:39;;;;;;;12.80;4.97;;;22.00;67.80;;;;;;5016629;28;20411;-37
2021/06/13 05:38:06;;;;;;;10.60;5.85;;;22.00;67.60;;;;;;5015816;28;20026;-37
2021/06/13 05:40:32;;;;;;;10.70;5.43;;;22.10;67.50;;;;;;5016107;28;20033;-37
2021/06/13 05:42:58;;;;;;;7.60;4.70;;;22.20;67.20;;;;;;5016095;28;20314;-40
2021/06/13 05:45:26;;;;;;;8.70;5.40;;;22.30;67.50;;;;;;5015933;28;20105;-39
2021/06/13 05:47:52;;;;;;;9.82;5.70;;;22.30;66.90;;;;;;5016192;28;20042;-39
2021/06/13 05:50:19;;;;;;;10.20;5.20;;;22.40;66.80;;;;;;5015922;28;20079;-39
2021/06/13 05:52:46;;;;;;;13.70;7.18;;;22.50;66.80;;;;;;5015836;28;20030;-38
2021/06/13 05:55:12;;;;;;;13.25;7.68;;;22.50;66.10;;;;;;5016025;28;20049;-39
2021/06/13 05:57:38;;;;;;;15.43;8.43;;;22.60;66.10;;;;;;5014742;28;20101;-39
2021/06/13 06:00:15;;;;;;;13.60;7.63;;;22.70;66.10;;;;;;5015856;28;20076;-37
2021/06/13 06:02:42;;;;;;;13.27;8.50;;;22.70;65.80;;;;;;5015519;28;20446;-39
2021/06/13 06:05:09;;;;;;;20.42;8.63;;;22.80;65.90;;;;;;5015519;28;20069;-40
2021/06/13 06:07:35;;;;;;;12.90;7.80;;;22.90;65.80;;;;;;5015687;28;20395;-40
2021/06/13 06:10:01;;;;;;;13.45;9.18;;;22.90;66.00;;;;;;5015792;28;20061;-39
2021/06/13 06:12:26;;;;;;;11.18;7.18;;;23.10;65.60;;;;;;5015836;28;20034;-36
2021/06/13 06:14:52;;;;;;;11.07;6.50;;;23.10;65.60;;;;;;5015738;28;20037;-40
2021/06/13 06:17:18;;;;;;;8.07;5.07;;;23.20;65.40;;;;;;5015704;28;20034;-40
2021/06/13 06:19:44;;;;;;;9.15;5.97;;;23.30;64.70;;;;;;5015625;28;20128;-40
2021/06/13 06:22:09;;;;;;;7.47;5.75;;;23.30;64.50;;;;;;5015610;28;20041;-36
2021/06/13 06:24:36;;;;;;;8.18;4.90;;;23.30;64.00;;;;;;5015698;28;20030;-37
2021/06/13 06:27:02;;;;;;;6.82;4.47;;;23.50;64.00;;;;;;5015443;28;20037;-37
2021/06/13 06:29:27;;;;;;;7.38;5.32;;;23.50;63.90;;;;;;5015518;28;20061;-37
2021/06/13 06:31:54;;;;;;;16.38;7.25;;;23.60;63.90;;;;;;5015584;28;20353;-37
2021/06/13 06:34:20;;;;;;;8.23;5.50;;;23.60;63.60;;;;;;5015488;28;20026;-37
2021/06/13 06:36:46;;;;;;;9.30;4.90;;;23.70;63.10;;;;;;5015554;28;20056;-40
2021/06/13 06:39:13;;;;;;;7.57;4.70;;;23.80;62.60;;;;;;5015468;28;20030;-36
2021/06/13 06:41:39;;;;;;;4.90;4.10;;;23.90;62.00;;;;;;5015616;28;20120;-37
2021/06/13 06:44:06;;;;;;;9.68;5.30;;;23.90;62.10;;;;;;5015438;28;20097;-39
2021/06/13 06:46:32;;;;;;;13.52;5.13;;;24.00;61.60;;;;;;5015325;28;20414;-37
2021/06/13 06:48:58;;;;;;;6.13;4.75;;;24.00;61.50;;;;;;5015415;28;20025;-38
2021/06/13 06:51:26;;;;;;;9.93;4.82;;;24.10;61.50;;;;;;5015267;28;20033;-40
2021/06/13 06:53:57;;;;;;;9.93;4.63;;;24.20;61.50;;;;;;5015468;28;20326;-37
2021/06/13 06:56:22;;;;;;;7.82;4.90;;;24.30;61.20;;;;;;5015335;28;20022;-39
2021/06/13 06:58:48;;;;;;;5.75;4.32;;;24.40;60.70;;;;;;5015321;28;20022;-36
2021/06/13 07:01:14;;;;;;;7.25;4.82;;;24.40;60.20;;;;;;5015393;28;20354;-37
2021/06/13 07:03:39;;;;;;;9.45;4.95;;;24.50;60.50;;;;;;5015334;28;20121;-37
2021/06/13 07:06:05;;;;;;;7.10;4.93;;;24.50;60.50;;;;;;5015453;28;20295;-37
2021/06/13 07:08:31;;;;;;;18.10;4.85;;;24.60;60.10;;;;;;5016772;28;20030;-40
2021/06/13 07:10:56;;;;;;;6.60;4.70;;;24.70;60.10;;;;;;5019012;28;20034;-37
2021/06/13 07:13:22;;;;;;;11.70;4.85;;;24.80;60.00;;;;;;5018415;28;20026;-40
2021/06/13 07:15:49;;;;;;;7.20;3.95;;;24.80;58.80;;;;;;5019107;28;20030;-39
2021/06/13 07:18:14;;;;;;;6.75;4.47;;;24.90;57.50;;;;;;5018295;28;20453;-37
2021/06/13 07:20:40;;;;;;;6.10;4.20;;;25.00;57.30;;;;;;5018800;28;20037;-38
2021/06/13 07:23:06;;;;;;;6.72;4.40;;;25.00;56.60;;;;;;5018347;28;20101;-40
2021/06/13 07:25:32;;;;;;;9.85;4.50;;;25.10;57.10;;;;;;5018297;28;20085;-37
2021/06/13 07:27:57;;;;;;;5.65;4.07;;;25.20;57.10;;;;;;5018471;28;20029;-39
2021/06/13 07:30:23;;;;;;;6.82;3.70;;;25.20;56.20;;;;;;5018498;28;20037;-39
2021/06/13 07:32:49;;;;;;;8.73;3.85;;;25.40;55.70;;;;;;5018089;28;20322;-40
2021/06/13 07:35:18;;;;;;;7.50;4.00;;;25.40;55.00;;;;;;5018517;28;20045;-40
2021/06/13 07:37:45;;;;;;;7.57;4.03;;;25.50;55.40;;;;;;5018132;28;20414;-40
2021/06/13 07:40:12;;;;;;;5.80;3.83;;;25.60;54.40;;;;;;5018457;28;20030;-39
2021/06/13 07:42:38;;;;;;;5.57;3.88;;;25.70;53.60;;;;;;5018137;28;20034;-38
2021/06/13 07:45:06;;;;;;;7.90;3.08;;;25.70;52.60;;;;;;5018173;28;20054;-41
2021/06/13 07:47:32;;;;;;;16.23;3.85;;;25.90;52.10;;;;;;5018286;28;20025;-37
2021/06/13 07:49:58;;;;;;;10.07;3.42;;;26.00;51.50;;;;;;5018450;28;20033;-38
2021/06/13 07:52:25;;;;;;;14.95;4.00;;;26.10;51.30;;;;;;5018213;28;20034;-38
2021/06/13 07:54:51;;;;;;;5.97;3.10;;;26.20;50.70;;;;;;5017731;28;20068;-37
2021/06/13 07:57:16;;;;;;;5.47;3.30;;;26.30;50.60;;;;;;5017986;28;20049;-37
2021/06/13 07:59:42;;;;;;;13.10;3.67;;;26.40;50.30;;;;;;5017695;28;20030;-37
2021/06/13 08:02:10;;;;;;;7.18;3.35;;;26.50;49.30;;;;;;5017686;28;20120;-37
2021/06/13 08:04:37;;;;;;;4.10;3.20;;;26.70;49.00;;;;;;5017609;28;20030;-37
2021/06/13 08:07:04;;;;;;;4.85;3.00;;;26.70;49.10;;;;;;5017850;28;20060;-38
2021/06/13 08:09:30;;;;;;;9.57;3.00;;;26.70;49.10;;;;;;5017781;28;20034;-37
2021/06/13 08:11:56;;;;;;;7.57;3.75;;;26.80;48.60;;;;;;5017984;28;20036;-39
2021/06/13 08:14:22;;;;;;;6.60;3.65;;;26.80;48.40;;;;;;5017833;28;20034;-40
2021/06/13 08:16:48;;;;;;;9.52;3.80;;;26.80;48.30;;;;;;5017682;28;20038;-40
2021/06/13 08:19:13;;;;;;;5.45;3.03;;;26.80;48.30;;;;;;5016257;28;20070;-40
2021/06/13 08:21:40;;;;;;;8.13;3.42;;;26.80;48.50;;;;;;5017384;28;20038;-37
2021/06/13 08:24:06;;;;;;;4.47;2.90;;;26.80;48.30;;;;;;5017458;28;20030;-39
2021/06/13 08:26:36;;;;;;;4.57;3.13;;;26.70;48.20;;;;;;5017465;28;20520;-39
2021/06/13 08:29:03;;;;;;;9.75;3.92;;;26.70;48.30;;;;;;5017414;28;20022;-38
2021/06/13 08:31:30;;;;;;;6.45;3.05;;;26.70;48.00;;;;;;5017176;28;20064;-37
2021/06/13 08:33:56;;;;;;;14.25;3.20;;;26.80;47.90;;;;;;5017662;28;20026;-40
2021/06/13 08:36:23;;;;;;;13.95;3.28;;;26.90;47.50;;;;;;5017254;28;20349;-40
2021/06/13 08:38:51;;;;;;;4.82;3.33;;;26.90;47.50;;;;;;5017439;28;20096;-40
2021/06/13 08:41:18;;;;;;;10.80;3.60;;;27.00;47.50;;;;;;5017447;28;20038;-40
2021/06/13 08:43:45;;;;;;;6.00;3.17;;;27.10;47.70;;;;;;5016919;28;20034;-38
2021/06/13 08:46:12;;;;;;;5.63;3.30;;;27.10;47.30;;;;;;5017233;28;20030;-40
2021/06/13 08:48:39;;;;;;;6.15;3.10;;;27.10;47.50;;;;;;5017190;28;20474;-38
2021/06/13 08:51:05;;;;;;;7.03;3.75;;;27.10;47.60;;;;;;5017019;28;20042;-37
2021/06/13 08:53:30;;;;;;;8.65;3.35;;;27.00;48.30;;;;;;5032128;28;20181;-39
2021/06/13 08:55:56;;;;;;;12.40;3.30;;;26.90;49.50;;;;;;5016994;28;20097;-40
2021/06/13 08:58:22;;;;;;;7.07;3.00;;;26.80;49.50;;;;;;5016519;28;20029;-40
2021/06/13 09:00:50;;;;;;;6.75;2.90;;;26.60;49.40;;;;;;5016954;28;20044;-38
2021/06/13 09:03:16;;;;;;;6.78;3.53;;;26.50;48.60;;;;;;5016644;28;20033;-37
2021/06/13 09:05:42;;;;;;;10.07;3.65;;;26.30;49.60;;;;;;5016750;28;20180;-40
2021/06/13 09:08:10;;;;;;;4.60;2.45;;;26.00;52.40;;;;;;5016438;28;20108;-40
2021/06/13 09:10:44;;;;;;;2.50;2.30;;;25.80;53.20;;;;;;5016754;28;20041;-37
2021/06/13 09:13:14;;;;;;;5.28;4.07;;;25.70;54.00;;;;;;5016110;28;20022;-40
2021/06/13 09:15:47;;;;;;;5.28;2.75;;;25.50;54.60;;;;;;5016771;28;20117;-39
2021/06/13 09:18:39;;;;;;;5.63;3.10;;;25.30;54.10;;;;;;5016448;28;20030;-37
2021/06/13 09:21:13;;;;;;;5.90;3.30;;;25.20;53.80;;;;;;5011993;28;20315;-40
2021/06/13 09:23:41;;;;;;;7.88;2.80;;;25.10;53.40;;;;;;5016575;28;20127;-40
2021/06/13 09:26:09;;;;;;;3.20;2.80;;;25.00;53.00;;;;;;5016470;28;20034;-40
2021/06/13 09:28:38;;;;;;;4.45;2.63;;;25.00;51.70;;;;;;5016372;28;20113;-37
2021/06/13 09:31:06;;;;;;;5.40;3.00;;;25.00;52.20;;;;;;5016350;28;20030;-40
2021/06/13 09:33:36;;;;;;;39.38;4.68;;;25.00;52.20;;;;;;5015958;28;20037;-40
2021/06/13 09:36:04;;;;;;;;;;;25.10;52.10;;;;;;5017191;28;20049;-40
2021/06/13 09:38:38;;;;;;;6.03;3.13;;;25.10;52.10;;;;;;5031210;28;19910;-39
2021/06/13 09:41:10;;;;;;;5.97;3.10;;;25.10;53.10;;;;;;5015933;28;20037;-40
2021/06/13 09:43:46;;;;;;;7.20;3.20;;;25.10;53.30;;;;;;5015953;28;20041;-37
2021/06/13 09:46:17;;;;;;;8.05;4.10;;;25.00;53.90;;;;;;5015930;28;20119;-38
2021/06/13 09:48:49;;;;;;;6.32;4.65;;;25.00;54.50;;;;;;5016327;28;20133;-37
2021/06/13 09:51:20;;;;;;;6.07;3.42;;;25.00;54.80;;;;;;5016342;28;20165;-40
2021/06/13 09:53:49;;;;;;;3.55;2.65;;;25.00;54.40;;;;;;5015873;28;20299;-37
2021/06/13 09:56:22;;;;;;;6.03;2.97;;;25.00;54.30;;;;;;5016111;28;20041;-37
2021/06/13 09:59:11;;;;;;;6.38;3.00;;;25.00;54.00;;;;;;5016195;28;20380;-37
2021/06/13 10:01:45;;;;;;;4.18;3.08;;;25.10;53.90;;;;;;5010349;28;20038;-37
2021/06/13 10:04:20;;;;;;;5.65;2.85;;;25.20;53.40;;;;;;5016190;28;20026;-37
2021/06/13 10:06:47;;;;;;;7.15;3.58;;;25.20;53.20;;;;;;5015773;28;20473;-37
2021/06/13 10:09:14;;;;;;;4.85;2.78;;;25.30;54.20;;;;;;5015849;28;20444;-39
2021/06/13 10:11:40;;;;;;;5.43;2.65;;;25.30;53.60;;;;;;5015110;28;20589;-37
2021/06/13 10:14:18;;;;;;;3.72;2.60;;;25.20;53.50;;;;;;5032403;28;20353;-37
2021/06/13 10:16:52;;;;;;;4.90;2.63;;;25.20;53.60;;;;;;5034045;28;20103;-37
2021/06/13 10:19:23;;;;;;;3.45;2.65;;;25.20;54.60;;;;;;5034969;28;20413;-37
2021/06/13 10:21:57;;;;;;;3.25;2.40;;;25.20;55.00;;;;;;5035299;28;20405;-40
2021/06/13 10:24:28;;;;;;;3.53;2.70;;;25.20;55.80;;;;;;5034754;28;20026;-38
2021/06/13 10:27:00;;;;;;;6.13;2.67;;;25.20;55.90;;;;;;5035153;28;20087;-38
2021/06/13 10:29:28;;;;;;;4.55;2.70;;;25.20;56.00;;;;;;5034849;28;20034;-38
2021/06/13 10:31:56;;;;;;;4.50;2.90;;;25.30;55.50;;;;;;5034894;28;20033;-37
2021/06/13 10:34:23;;;;;;;4.57;2.70;;;25.40;55.90;;;;;;5035165;28;20025;-38
2021/06/13 10:36:50;;;;;;;3.40;2.78;;;25.50;55.50;;;;;;5035133;28;20091;-40
2021/06/13 10:39:19;;;;;;;3.40;2.45;;;25.50;55.30;;;;;;5035062;28;20022;-38
2021/06/13 10:41:45;;;;;;;2.92;2.45;;;25.70;54.70;;;;;;5035084;28;20103;-40
2021/06/13 10:44:14;;;;;;;5.05;2.70;;;25.80;54.30;;;;;;5038147;28;20060;-39
2021/06/13 10:46:43;;;;;;;5.00;2.78;;;25.90;52.70;;;;;;5038688;28;20364;-38
2021/06/13 10:49:30;;;;;;;5.50;2.63;;;26.10;52.30;;;;;;5038453;28;20318;-38
2021/06/13 10:52:13;;;;;;;4.90;2.80;;;26.20;51.30;;;;;;5038496;28;20029;-39
2021/06/13 10:54:40;;;;;;;5.35;2.47;;;26.30;51.20;;;;;;5038269;28;20028;-40
2021/06/13 10:57:05;;;;;;;4.30;2.97;;;26.30;52.00;;;;;;5038619;28;20036;-40
2021/06/13 10:59:37;;;;;;;3.70;2.70;;;26.30;52.40;;;;;;5038431;28;20021;-40
2021/06/13 11:02:12;;;;;;;6.10;2.63;;;26.30;51.90;;;;;;5039043;28;20041;-40
2021/06/13 11:04:54;;;;;;;5.07;2.42;;;26.20;52.40;;;;;;5038170;28;20025;-40
2021/06/13 11:07:35;;;;;;;6.70;2.80;;;26.20;52.80;;;;;;5038481;28;20037;-38
2021/06/13 11:13:00;;;;;;;3.13;2.40;;;26.30;51.30;;;;;;5037985;28;20085;-39
2021/06/13 11:15:30;;;;;;;4.85;2.83;;;26.30;50.80;;;;;;5038026;28;20025;-40
2021/06/13 11:17:57;;;;;;;4.65;2.38;;;26.30;51.00;;;;;;5038027;28;20079;-37
2021/06/13 11:23:08;;;;;;;5.72;2.97;;;26.40;50.70;;;;;;5037774;28;20445;-37
2021/06/13 11:25:38;;;;;;;7.78;2.70;;;26.50;51.10;;;;;;5037839;28;20072;-37
2021/06/13 11:28:13;;;;;;;3.85;3.10;;;26.70;51.50;;;;;;5037906;28;20034;-40
2021/06/13 11:30:45;;;;;;;3.42;3.08;;;26.70;51.20;;;;;;5037893;28;20044;-40
2021/06/13 11:33:11;;;;;;;7.20;3.25;;;26.80;51.70;;;;;;5037391;28;20310;-37
2021/06/13 11:35:44;;;;;;;7.35;3.35;;;26.80;51.60;;;;;;5037462;28;20030;-37
2021/06/13 11:38:09;;;;;;;4.30;3.45;;;26.90;51.50;;;;;;5052877;28;20025;-37
2021/06/13 11:40:47;;;;;;;6.97;3.78;;;26.70;51.60;;;;;;5037498;28;20120;-37
2021/06/13 11:43:15;;;;;;;4.15;3.03;;;26.70;51.90;;;;;;5037383;28;20087;-37
2021/06/13 11:46:01;;;;;;;4.90;3.05;;;26.60;52.10;;;;;;5037415;28;20099;-40
2021/06/13 11:48:29;;;;;;;4.03;3.10;;;26.50;52.00;;;;;;5037039;28;20029;-37
2021/06/13 11:51:04;;;;;;;6.03;3.20;;;26.40;52.50;;;;;;5037574;28;20037;-41
2021/06/13 11:53:52;;;;;;;4.05;2.90;;;26.30;53.00;;;;;;5037087;28;20040;-40
2021/06/13 11:56:34;;;;;;;4.90;2.42;;;26.20;52.70;;;;;;5037223;28;20369;-40
2021/06/13 11:59:10;;;;;;;3.13;2.25;;;26.10;52.80;;;;;;5037504;28;20017;-41
2021/06/13 12:01:37;;;;;;;2.58;2.38;;;25.90;52.30;;;;;;5037604;28;20041;-39
2021/06/13 12:04:05;;;;;;;6.28;2.50;;;25.80;53.40;;;;;;5037040;28;20064;-40
2021/06/13 12:06:35;;;;;;;4.75;2.80;;;25.50;54.90;;;;;;5037525;28;20409;-40
2021/06/13 12:09:08;;;;;;;7.70;3.25;;;25.30;55.50;;;;;;5037405;28;20321;-38
2021/06/13 12:11:37;;;;;;;2.50;2.22;;;25.00;57.40;;;;;;5037158;28;20048;-37
2021/06/13 12:14:22;;;;;;;3.63;2.50;;;24.80;58.50;;;;;;5037134;28;20025;-38
2021/06/13 12:16:55;;;;;;;3.83;2.92;;;24.60;59.50;;;;;;5037168;28;20085;-39
2021/06/13 12:19:35;;;;;;;7.07;4.45;;;24.50;60.50;;;;;;5036738;28;20081;-37
2021/06/13 12:22:13;;;;;;;;;;;24.30;61.70;;;;;;5037857;28;20056;-37
2021/06/13 12:27:22;;;;;;;5.25;3.45;;;24.00;62.20;;;;;;5037198;28;20057;-37
2021/06/13 12:29:55;;;;;;;;;;;23.90;63.90;;;;;;5037536;28;20033;-38
2021/06/13 12:32:21;;;;;;;6.50;3.30;;;23.70;62.90;;;;;;5037056;28;19953;-38
2021/06/13 12:34:54;;;;;;;4.55;3.38;;;23.60;66.10;;;;;;5037001;28;20033;-40
2021/06/13 12:37:24;;;;;;;4.47;3.20;;;23.60;68.10;;;;;;5036927;28;20036;-39
2021/06/13 12:39:58;;;;;;;4.43;3.70;;;23.70;67.50;;;;;;5036832;28;20375;-37
2021/06/13 12:42:24;;;;;;;4.47;3.35;;;23.60;66.50;;;;;;5036941;28;20037;-39
2021/06/13 12:45:06;;;;;;;6.53;4.82;;;23.60;66.80;;;;;;5036213;28;20068;-40
2021/06/13 12:47:32;;;;;;;6.05;4.80;;;23.70;68.00;;;;;;5036813;28;20087;-39
2021/06/13 12:49:59;;;;;;;5.88;4.93;;;23.70;68.10;;;;;;5036628;28;20117;-39
2021/06/13 12:52:26;;;;;;;4.93;3.63;;;23.70;68.50;;;;;;5036326;28;20519;-40
2021/06/13 12:55:01;;;;;;;3.80;3.35;;;23.70;68.40;;;;;;5036414;28;20034;-39
2021/06/13 12:57:27;;;;;;;6.25;5.10;;;23.70;68.80;;;;;;5036800;28;20082;-37
2021/06/13 12:59:54;;;;;;;9.40;4.70;;;23.80;69.90;;;;;;5036284;28;20030;-40